Time;durP1;ratioP1;P1;durP2;ratioP2;P2;SDS_P1;SDS_P2;PMS_P1;PMS_P2;Temp;Humidity;BMP_temperature;BMP_pressure;BME280_temperature;BME280_humidity;BME280_pressure;Samples;Min_cycle;Max_cycle;Signal;HPM_P1;HPM_P2
2021/11/09 00:01:03;;;;;;;17.35;7.28;;;;;;;9.35;58.86;102485.13;5005478;28;115309;-74
2021/11/09 00:03:35;;;;;;;16.42;6.45;;;;;;;9.33;58.68;102484.28;4997014;28;113831;-73
2021/11/09 00:06:09;;;;;;;21.15;7.50;;;;;;;9.31;58.86;102478.13;4992738;28;124132;-74
2021/11/09 00:08:42;;;;;;;15.30;7.38;;;;;;;9.31;58.94;102478.13;5010001;27;123569;-74
2021/11/09 00:11:10;;;;;;;18.88;7.40;;;;;;;9.28;59.05;102467.59;4999641;28;113695;-74
2021/11/09 00:13:37;;;;;;;17.73;7.68;;;;;;;9.27;58.92;102468.50;4995415;28;111799;-74
2021/11/09 00:16:05;;;;;;;18.42;7.75;;;;;;;9.26;59.17;102464.09;4997425;28;124416;-74
2021/11/09 00:18:32;;;;;;;19.08;8.32;;;;;;;9.24;59.08;102465.88;5000643;28;124425;-74
2021/11/09 00:20:59;;;;;;;24.23;7.65;;;;;;;9.23;59.23;102465.03;4997565;28;115013;-73
2021/11/09 00:23:27;;;;;;;15.68;7.00;;;;;;;9.22;59.14;102451.81;4998381;28;114183;-74
2021/11/09 00:25:55;;;;;;;16.38;6.97;;;;;;;9.20;59.03;102454.47;5001736;28;123798;-74
2021/11/09 00:28:22;;;;;;;18.17;7.78;;;;;;;9.16;59.45;102453.63;5005631;28;124324;-74
2021/11/09 00:30:49;;;;;;;17.38;7.03;;;;;;;9.14;59.12;102450.13;4999496;28;115284;-74
2021/11/09 00:33:16;;;;;;;15.50;7.00;;;;;;;9.12;59.40;102462.50;4999425;28;115521;-74
2021/11/09 00:35:43;;;;;;;18.00;6.65;;;;;;;9.11;59.22;102455.47;5013265;27;123999;-74
2021/11/09 00:38:11;;;;;;;18.45;6.72;;;;;;;9.09;59.09;102456.38;4993490;28;124170;-74
2021/11/09 00:40:41;;;;;;;22.58;7.63;;;;;;;9.06;59.25;102465.25;5001979;28;114598;-74
2021/11/09 00:43:11;;;;;;;18.00;7.40;;;;;;;9.06;59.31;102477.56;5004101;28;113177;-74
2021/11/09 00:45:39;;;;;;;17.70;6.90;;;;;;;9.05;59.25;102476.69;4999631;28;125559;-74
2021/11/09 00:48:06;;;;;;;18.85;7.28;;;;;;;9.03;59.23;102473.19;5000825;28;123488;-74
2021/11/09 00:50:36;;;;;;;15.75;6.65;;;;;;;9.03;59.24;102478.47;5004225;28;113970;-74
2021/11/09 00:53:05;;;;;;;14.88;6.68;;;;;;;9.02;59.16;102482.00;4995583;28;113754;-74
2021/11/09 00:55:33;;;;;;;17.75;6.72;;;;;;;9.00;59.08;102486.44;4999215;28;123840;-74
2021/11/09 00:58:00;;;;;;;15.40;7.00;;;;;;;8.96;59.30;102480.31;5002766;28;123885;-74
2021/11/09 01:00:31;;;;;;;15.90;7.10;;;;;;;8.94;59.13;102475.94;5003393;28;114664;-74
2021/11/09 01:03:01;;;;;;;16.80;6.32;;;;;;;8.90;59.15;102476.88;5001672;28;114017;-74
2021/11/09 01:05:29;;;;;;;15.70;6.65;;;;;;;8.86;59.07;102480.44;5002652;28;123817;-74
2021/11/09 01:07:59;;;;;;;20.27;7.50;;;;;;;8.82;59.06;102471.69;4991810;28;124118;-73
2021/11/09 01:10:30;;;;;;;23.52;6.80;;;;;;;8.79;59.30;102478.75;4998940;28;115297;-74
2021/11/09 01:12:57;;;;;;;21.40;7.72;;;;;;;8.75;58.86;102484.06;4996536;28;113574;-74
2021/11/09 01:15:26;;;;;;;17.65;7.10;;;;;;;8.71;59.01;102482.38;4982586;28;124409;-74
2021/11/09 01:17:54;;;;;;;13.70;6.53;;;;;;;8.70;59.01;102485.91;4993056;28;123905;-74
2021/11/09 01:20:26;;;;;;;12.93;6.38;;;;;;;8.67;59.18;102485.94;4993942;28;115199;-74
2021/11/09 01:22:56;;;;;;;16.65;7.13;;;;;;;8.63;59.22;102489.50;4998224;28;114875;-74
2021/11/09 01:25:26;;;;;;;16.77;7.18;;;;;;;8.62;59.15;102498.31;4995353;28;123968;-74
2021/11/09 01:27:53;;;;;;;20.48;7.07;;;;;;;8.61;59.33;102491.28;4999224;28;124075;-73
2021/11/09 01:30:20;;;;;;;20.73;7.55;;;;;;;8.58;59.63;102488.66;4997156;28;114081;-74
2021/11/09 01:32:50;;;;;;;17.33;7.43;;;;;;;8.57;59.44;102494.84;5009495;28;113180;-74
2021/11/09 01:35:17;;;;;;;17.85;6.90;;;;;;;8.56;59.72;102493.09;4996436;28;124379;-74
2021/11/09 01:37:45;;;;;;;21.60;7.78;;;;;;;8.54;59.57;102484.31;4990514;28;122579;-74
2021/11/09 01:40:13;;;;;;;19.02;7.55;;;;;;;8.54;59.55;102484.31;4993585;28;113720;-74
2021/11/09 01:42:40;;;;;;;16.75;7.60;;;;;;;8.52;59.64;102486.09;4995380;28;114159;-74
2021/11/09 01:45:09;;;;;;;14.95;7.75;;;;;;;8.53;59.72;102498.41;4993456;28;123025;-74
2021/11/09 01:47:38;;;;;;;18.98;7.20;;;;;;;8.51;59.50;102489.63;4997612;28;123846;-74
2021/11/09 01:50:07;;;;;;;16.63;7.57;;;;;;;8.49;59.59;102486.13;4991975;28;114026;-74
2021/11/09 01:52:35;;;;;;;20.80;8.32;;;;;;;8.48;59.51;102484.38;5000101;28;113899;-73
2021/11/09 01:55:06;;;;;;;18.80;7.95;;;;;;;8.45;59.58;102484.41;5001500;28;124866;-73
2021/11/09 01:57:33;;;;;;;17.08;7.85;;;;;;;8.43;59.77;102483.53;5000192;28;124165;-74
2021/11/09 02:00:04;;;;;;;14.23;7.22;;;;;;;8.38;59.86;102479.16;4998424;28;113492;-74
2021/11/09 02:02:42;;;;;;;18.20;7.65;;;;;;;8.36;59.80;102480.94;5003004;28;114577;-74
2021/11/09 02:05:10;;;;;;;17.55;7.47;;;;;;;8.33;59.72;102480.94;4997377;28;123929;-74
2021/11/09 02:07:48;;;;;;;15.38;7.28;;;;;;;8.32;59.69;102489.75;4998899;28;123362;-73
2021/11/09 02:10:17;;;;;;;18.80;7.55;;;;;;;8.31;60.09;102482.72;4995379;28;115203;-74
2021/11/09 02:12:44;;;;;;;19.88;8.52;;;;;;;8.30;59.72;102491.53;4994031;28;114908;-74
2021/11/09 02:15:13;;;;;;;21.27;8.00;;;;;;;8.29;60.07;102500.34;4994999;28;126946;-73
2021/11/09 02:17:42;;;;;;;17.13;7.47;;;;;;;8.30;59.59;102502.09;4993849;28;124525;-74
2021/11/09 02:20:11;;;;;;;17.85;7.80;;;;;;;8.27;60.13;102507.41;4993667;28;114590;-74
2021/11/09 02:22:40;;;;;;;17.55;7.50;;;;;;;8.26;60.08;102505.66;4994892;28;113434;-74
2021/11/09 02:25:11;;;;;;;15.75;7.32;;;;;;;8.23;60.16;102505.69;4994612;28;123618;-74
2021/11/09 02:27:39;;;;;;;17.85;7.72;;;;;;;8.23;60.06;102505.69;4998914;28;124300;-74
2021/11/09 02:30:10;;;;;;;19.10;8.27;;;;;;;8.21;60.20;102499.53;4997502;28;114338;-74
2021/11/09 02:32:37;;;;;;;14.10;7.57;;;;;;;8.21;59.94;102496.03;4997212;28;112967;-74
2021/11/09 02:35:06;;;;;;;17.65;6.95;;;;;;;8.20;59.77;102497.78;4991742;28;123807;-74
2021/11/09 02:37:33;;;;;;;15.05;6.88;;;;;;;8.19;59.93;102499.56;5001735;28;123772;-74
2021/11/09 02:40:03;;;;;;;16.00;6.97;;;;;;;8.18;59.91;102510.13;4994563;28;114541;-74
2021/11/09 02:42:36;;;;;;;16.55;7.32;;;;;;;8.17;59.64;102511.00;5002921;28;114719;-74
2021/11/09 02:45:18;;;;;;;18.88;7.18;;;;;;;8.15;59.54;102507.50;5000930;28;124046;-74
2021/11/09 02:47:52;;;;;;;17.80;7.95;;;;;;;8.12;59.62;102507.53;5001151;28;123674;-73
2021/11/09 02:50:22;;;;;;;17.63;7.95;;;;;;;8.09;59.59;102508.44;4994209;28;114213;-74
2021/11/09 02:53:31;;;;;;;18.85;8.00;;;;;;;8.07;59.76;102504.06;4995994;28;114340;-74
2021/11/09 02:55:48;;;;;;;17.40;7.68;;;;;;;8.03;59.85;102499.69;4995733;28;123920;-74
2021/11/09 03:01:36;;;;;;;17.23;7.60;;;;;;;7.97;59.99;102501.50;4990235;28;115488;-74
2021/11/09 03:06:56;;;;;;;22.30;8.57;;;;;;;7.96;60.11;102501.50;4992411;28;123446;-73
2021/11/09 03:12:11;;;;;;;;;;;;;;;7.94;60.29;102496.22;5003328;28;114633;-74
2021/11/09 03:14:40;;;;;;;16.77;7.40;;;;;;;7.95;60.21;102490.06;5000889;28;112942;-74
2021/11/09 03:17:17;;;;;;;15.60;7.07;;;;;;;7.93;60.07;102491.84;4993084;28;124547;-73
2021/11/09 03:19:55;;;;;;;21.58;7.82;;;;;;;7.92;60.45;102490.09;4993010;28;122882;-73
2021/11/09 03:47:04;;;;;;;17.20;8.65;;;;;;;7.86;60.68;102490.13;5003267;28;114246;-73
2021/11/09 03:49:34;;;;;;;16.65;7.65;;;;;;;7.88;60.70;102493.63;5004557;28;122446;-73
2021/11/09 03:52:10;;;;;;;17.08;7.28;;;;;;;7.89;60.56;102498.03;4980492;28;123464;-73
2021/11/09 03:54:38;;;;;;;18.92;7.35;;;;;;;7.91;60.53;102493.63;5004797;28;114521;-73
2021/11/09 03:57:24;;;;;;;18.00;7.70;;;;;;;7.93;60.54;102491.84;5001361;28;115388;-73
2021/11/09 04:00:04;;;;;;;19.23;8.13;;;;;;;7.93;60.53;102497.13;5003148;28;123083;-74
2021/11/09 04:02:46;;;;;;;17.85;7.78;;;;;;;7.95;60.92;102499.75;5001318;28;122583;-74
2021/11/09 04:05:17;;;;;;;20.83;7.80;;;;;;;7.96;60.54;102497.09;5004509;28;114970;-74
2021/11/09 04:08:15;;;;;;;18.58;7.40;;;;;;;7.96;60.78;102491.81;5006384;28;114012;-74
2021/11/09 04:10:39;;;;;;;20.45;7.38;;;;;;;7.96;60.49;102489.16;4998965;28;123758;-74
2021/11/09 04:13:24;;;;;;;17.70;7.80;;;;;;;7.97;60.94;102493.56;4998384;28;123897;-74
2021/11/09 04:16:15;;;;;;;15.50;7.40;;;;;;;7.99;60.93;102501.47;4999438;28;114001;-74
2021/11/09 04:21:19;;;;;;;19.77;7.50;;;;;;;7.98;60.56;102503.22;4997666;28;124109;-74
2021/11/09 04:24:03;;;;;;;20.23;8.00;;;;;;;7.99;61.00;102507.63;5004149;28;123133;-74
2021/11/09 04:26:49;;;;;;;23.05;7.95;;;;;;;8.01;60.90;102509.41;5003449;28;114027;-74
2021/11/09 04:34:56;;;;;;;19.10;7.68;;;;;;;8.04;60.99;102519.91;5006142;28;124291;-74
2021/11/09 04:38:43;;;;;;;19.77;7.75;;;;;;;8.04;60.72;102525.19;5004830;28;114173;-74
2021/11/09 04:51:38;;;;;;;;;;;;;;;8.04;60.98;102535.72;5016875;27;113872;-74
2021/11/09 05:02:28;;;;;;;19.27;7.35;;;;;;;8.04;61.03;102530.47;4993328;28;113332;-74
2021/11/09 05:10:31;;;;;;;19.08;7.55;;;;;;;8.01;60.78;102535.78;4995086;28;114647;-74
2021/11/09 05:12:58;;;;;;;18.92;7.50;;;;;;;8.02;60.78;102548.06;5011241;27;114287;-73
2021/11/09 05:15:26;;;;;;;20.67;7.43;;;;;;;8.02;60.84;102540.16;4983106;28;122948;-74
2021/11/09 05:17:53;;;;;;;18.30;7.47;;;;;;;8.03;61.03;102539.28;5000585;28;123184;-74
2021/11/09 05:20:20;;;;;;;22.88;7.10;;;;;;;8.03;60.97;102544.56;4994502;28;114998;-74
2021/11/09 05:22:47;;;;;;;16.60;7.20;;;;;;;8.03;60.57;102549.84;4997309;28;113973;-74
2021/11/09 05:25:14;;;;;;;23.05;7.63;;;;;;;8.02;60.94;102545.44;4995782;28;123339;-74
2021/11/09 05:27:42;;;;;;;20.20;6.95;;;;;;;8.02;61.04;102548.06;5006330;28;123315;-74
2021/11/09 05:30:09;;;;;;;22.05;7.95;;;;;;;8.01;60.69;102551.63;4994131;28;113451;-74
2021/11/09 05:32:36;;;;;;;18.30;7.43;;;;;;;8.01;61.00;102548.97;4995532;28;113948;-74
2021/11/09 05:35:05;;;;;;;18.38;7.45;;;;;;;7.97;60.85;102551.63;4993849;28;123841;-76
2021/11/09 05:37:46;;;;;;;19.92;7.32;;;;;;;7.97;60.98;102548.97;4994599;28;123866;-75
2021/11/09 05:40:14;;;;;;;20.42;7.97;;;;;;;7.95;60.87;102555.16;4993434;28;115275;-73
2021/11/09 05:42:41;;;;;;;21.25;7.00;;;;;;;7.92;60.76;102553.41;4997437;28;114641;-74
2021/11/09 05:45:09;;;;;;;19.23;7.22;;;;;;;7.89;60.97;102556.06;4991885;28;124147;-74
2021/11/09 05:47:36;;;;;;;17.73;7.72;;;;;;;7.88;60.81;102562.22;5001534;28;122722;-74
2021/11/09 05:50:04;;;;;;;20.85;7.93;;;;;;;7.87;60.59;102560.47;5007177;27;114383;-74
2021/11/09 05:52:32;;;;;;;17.95;7.43;;;;;;;7.85;60.96;102559.59;4998765;28;114121;-74
2021/11/09 05:54:59;;;;;;;18.17;7.35;;;;;;;7.85;61.14;102562.22;4996407;28;123992;-74
2021/11/09 05:57:26;;;;;;;19.00;7.50;;;;;;;7.84;61.23;102565.78;4997067;28;123798;-74
2021/11/09 05:59:53;;;;;;;16.40;7.22;;;;;;;7.84;61.06;102571.06;4994701;28;114137;-74
2021/11/09 06:02:21;;;;;;;18.40;7.50;;;;;;;7.82;60.79;102567.53;5010765;27;113966;-74
2021/11/09 06:04:52;;;;;;;17.42;7.10;;;;;;;7.81;61.02;102571.06;4993487;28;124964;-74
2021/11/09 06:07:19;;;;;;;18.10;7.38;;;;;;;7.82;60.92;102572.81;4990501;28;123471;-74
2021/11/09 06:09:46;;;;;;;18.30;7.95;;;;;;;7.80;61.04;102569.31;4978428;28;113803;-74
2021/11/09 06:12:13;;;;;;;22.13;7.65;;;;;;;7.79;61.16;102578.09;4994786;28;114410;-74
2021/11/09 06:14:40;;;;;;;18.58;7.32;;;;;;;7.80;61.06;102579.88;4996104;28;124703;-74
2021/11/09 06:17:08;;;;;;;20.33;8.27;;;;;;;7.79;60.92;102572.81;4999230;28;123614;-74
2021/11/09 06:19:35;;;;;;;15.80;7.15;;;;;;;7.78;60.94;102586.91;4990281;28;115287;-74
2021/11/09 06:22:04;;;;;;;21.67;8.30;;;;;;;7.77;61.25;102585.16;4999142;28;114310;-74
2021/11/09 06:24:31;;;;;;;16.10;7.05;;;;;;;7.76;60.92;102593.94;4992330;28;124717;-74
2021/11/09 06:26:59;;;;;;;18.98;7.75;;;;;;;7.75;60.86;102597.47;4999247;28;123930;-74
2021/11/09 06:29:26;;;;;;;20.42;8.20;;;;;;;7.74;61.41;102595.69;4999327;28;115440;-74
2021/11/09 06:31:57;;;;;;;20.67;7.85;;;;;;;7.75;61.34;102602.75;4995444;28;115226;-73
2021/11/09 06:34:24;;;;;;;20.00;7.55;;;;;;;7.73;60.97;102599.25;4994566;28;124741;-73
2021/11/09 06:36:51;;;;;;;18.17;7.43;;;;;;;7.71;60.81;102596.59;4990228;28;123326;-74
2021/11/09 06:39:18;;;;;;;17.88;7.47;;;;;;;7.71;60.90;102603.66;4993415;28;113166;-74
2021/11/09 06:41:45;;;;;;;18.77;7.85;;;;;;;7.71;61.33;102595.75;4994538;28;113495;-74
2021/11/09 06:44:17;;;;;;;21.40;7.60;;;;;;;7.71;61.21;102601.00;4992984;28;124474;-74
2021/11/09 06:46:44;;;;;;;19.35;7.80;;;;;;;7.70;61.04;102599.25;4993831;28;123711;-74
2021/11/09 06:49:12;;;;;;;17.98;7.43;;;;;;;7.70;61.21;102599.25;4993956;28;113290;-74
2021/11/09 06:51:39;;;;;;;20.25;7.40;;;;;;;7.70;61.10;102604.53;4998790;28;112768;-73
2021/11/09 06:54:06;;;;;;;14.65;7.30;;;;;;;7.71;61.12;102606.28;5000045;28;123571;-74
2021/11/09 06:56:35;;;;;;;19.45;7.38;;;;;;;7.72;61.31;102613.31;4994242;28;122713;-74
2021/11/09 06:59:04;;;;;;;18.52;6.95;;;;;;;7.72;61.37;102602.75;4994078;28;114691;-74
2021/11/09 07:01:32;;;;;;;18.00;6.90;;;;;;;7.73;61.09;102601.88;4999423;28;114659;-74
2021/11/09 07:03:59;;;;;;;16.98;7.20;;;;;;;7.73;60.91;102609.78;4978227;28;123002;-74
2021/11/09 07:06:26;;;;;;;18.42;7.03;;;;;;;7.74;61.01;102616.81;5003228;28;123850;-73
2021/11/09 07:08:53;;;;;;;17.48;6.93;;;;;;;7.73;61.38;102610.66;5004466;28;113912;-74
2021/11/09 07:11:20;;;;;;;20.92;7.85;;;;;;;7.74;61.24;102614.16;4996528;28;114290;-74
2021/11/09 07:13:48;;;;;;;19.95;7.60;;;;;;;7.74;61.24;102611.53;4997805;28;125135;-74
2021/11/09 07:16:15;;;;;;;18.00;7.25;;;;;;;7.75;61.49;102613.28;5004243;28;124384;-74
2021/11/09 07:18:43;;;;;;;15.82;7.50;;;;;;;7.75;61.20;102608.03;4991087;28;115044;-74
2021/11/09 07:21:10;;;;;;;18.17;7.05;;;;;;;7.76;61.47;102604.47;5013783;28;115480;-74
2021/11/09 07:23:37;;;;;;;18.98;7.30;;;;;;;7.77;61.40;102616.81;4995156;28;123955;-74
2021/11/09 07:26:04;;;;;;;18.83;7.68;;;;;;;7.77;61.55;102619.44;4994001;28;123880;-74
2021/11/09 07:28:32;;;;;;;18.92;6.70;;;;;;;7.79;61.39;102625.59;4994490;28;113832;-75
2021/11/09 07:31:01;;;;;;;15.68;7.20;;;;;;;7.80;61.45;102627.34;4997249;28;114728;-74
2021/11/09 07:33:29;;;;;;;17.08;7.30;;;;;;;7.84;61.47;102622.94;4997621;28;124588;-74
2021/11/09 07:35:57;;;;;;;14.68;6.75;;;;;;;7.86;61.37;102632.59;5000504;28;123181;-74
2021/11/09 07:38:25;;;;;;;20.40;7.75;;;;;;;7.90;61.27;102633.44;4998510;28;113767;-73
2021/11/09 07:40:52;;;;;;;18.88;6.97;;;;;;;7.92;61.39;102632.53;5002971;28;113592;-75
2021/11/09 07:43:19;;;;;;;20.50;7.18;;;;;;;7.95;61.92;102637.81;4991746;28;122815;-74
2021/11/09 07:45:47;;;;;;;20.30;7.10;;;;;;;7.99;61.78;102639.56;4996125;28;124205;-74
2021/11/09 07:48:14;;;;;;;20.75;7.65;;;;;;;8.03;61.76;102645.69;4996747;28;114513;-74
2021/11/09 07:50:42;;;;;;;14.30;6.93;;;;;;;8.06;61.53;102639.50;4992736;28;112845;-75
2021/11/09 07:53:16;;;;;;;16.13;7.05;;;;;;;8.11;61.68;102643.00;4997582;28;123575;-74
2021/11/09 07:55:50;;;;;;;15.38;7.07;;;;;;;8.16;61.73;102646.50;4994053;28;124757;-74
2021/11/09 07:58:30;;;;;;;23.30;6.95;;;;;;;8.20;62.06;102650.88;4995891;28;113976;-74
2021/11/09 08:01:07;;;;;;;21.50;7.20;;;;;;;8.26;61.76;102657.88;5013894;27;113147;-74
2021/11/09 08:03:41;;;;;;;19.40;6.85;;;;;;;8.31;61.90;102656.97;4996353;28;124825;-74
2021/11/09 08:06:16;;;;;;;23.77;7.65;;;;;;;8.36;61.83;102652.53;4997322;28;125938;-74
2021/11/09 08:08:57;;;;;;;16.52;7.32;;;;;;;8.42;62.21;102653.41;4998737;28;115184;-76
2021/11/09 08:11:24;;;;;;;20.50;7.45;;;;;;;8.47;61.75;102646.31;4998115;28;113743;-74
2021/11/09 08:13:51;;;;;;;19.77;7.33;;;;;;;8.52;62.37;102649.81;4996356;28;124921;-74
2021/11/09 08:16:19;;;;;;;19.67;7.65;;;;;;;8.58;62.11;102653.28;4998143;28;125426;-74
2021/11/09 08:18:46;;;;;;;16.45;7.40;;;;;;;8.66;62.34;102647.94;5007394;28;113906;-75
2021/11/09 08:21:14;;;;;;;19.10;6.90;;;;;;;8.72;61.86;102642.63;5003675;28;114697;-74
2021/11/09 08:23:43;;;;;;;21.15;7.07;;;;;;;8.79;62.47;102653.13;5010505;28;123958;-74
2021/11/09 08:26:10;;;;;;;22.00;6.88;;;;;;;8.85;62.48;102647.78;5003275;28;123565;-75
2021/11/09 08:28:37;;;;;;;15.38;7.05;;;;;;;8.91;62.30;102647.72;5000754;28;114617;-74
2021/11/09 08:31:08;;;;;;;19.42;7.40;;;;;;;8.97;62.00;102647.69;4991216;28;113524;-76
2021/11/09 08:33:35;;;;;;;17.58;6.68;;;;;;;9.02;62.40;102652.91;5011503;28;123608;-74
2021/11/09 08:36:07;;;;;;;15.65;6.80;;;;;;;9.08;62.28;102651.09;5004571;28;124419;-75
2021/11/09 08:38:36;;;;;;;19.88;7.55;;;;;;;9.14;62.20;102655.47;5009130;28;113668;-75
2021/11/09 08:41:09;;;;;;;26.42;7.13;;;;;;;9.21;62.30;102656.25;5009619;28;114127;-74
2021/11/09 08:43:38;;;;;;;18.08;7.15;;;;;;;9.26;62.28;102659.72;4998345;28;123691;-75
2021/11/09 08:46:19;;;;;;;16.30;7.20;;;;;;;9.30;62.55;102661.44;5004946;28;122744;-74
2021/11/09 08:48:49;;;;;;;18.08;7.43;;;;;;;9.37;62.00;102663.16;5003164;28;114104;-75
2021/11/09 08:51:17;;;;;;;17.42;7.55;;;;;;;9.43;62.24;102663.06;5013400;28;113838;-74
2021/11/09 08:56:29;;;;;;;15.52;7.40;;;;;;;9.55;62.40;102662.94;5014963;28;124673;-75
2021/11/09 09:04:20;;;;;;;20.30;7.28;;;;;;;9.75;62.23;102652.09;5011135;28;124955;-74
2021/11/09 09:06:51;;;;;;;16.20;7.20;;;;;;;9.84;62.36;102658.19;4997015;28;123267;-74
2021/11/09 09:09:18;;;;;;;18.92;7.70;;;;;;;9.90;62.28;102664.28;5005230;28;113541;-74
2021/11/09 09:11:48;;;;;;;19.38;7.53;;;;;;;10.00;62.29;102664.16;5011025;28;114029;-74
2021/11/09 09:14:18;;;;;;;16.88;7.32;;;;;;;10.08;62.28;102672.88;5013427;28;123476;-75
2021/11/09 09:16:46;;;;;;;19.55;7.30;;;;;;;10.16;62.06;102664.84;5013519;28;123858;-74
2021/11/09 09:19:15;;;;;;;17.85;7.70;;;;;;;10.22;62.23;102655.00;5009294;28;115223;-74
2021/11/09 09:21:48;;;;;;;19.52;6.75;;;;;;;10.30;62.26;102657.56;5010739;28;113397;-74
2021/11/09 09:29:56;;;;;;;16.35;7.15;;;;;;;10.58;62.28;102650.09;5017690;28;114363;-74
2021/11/09 09:55:13;;;;;;;15.55;7.57;;;;;;;11.39;61.73;102653.09;5021808;28;115038;-74
2021/11/09 09:57:39;;;;;;;17.92;7.57;;;;;;;11.49;61.57;102654.66;5021337;28;124571;-73
2021/11/09 10:00:06;;;;;;;20.35;8.00;;;;;;;11.58;61.72;102642.09;5021780;28;123777;-73
2021/11/09 10:03:07;;;;;;;18.55;7.18;;;;;;;11.67;61.51;102649.88;5032789;28;114620;-73
2021/11/09 10:05:41;;;;;;;17.17;6.75;;;;;;;11.76;61.23;102652.34;5006600;28;113481;-73
2021/11/09 10:08:19;;;;;;;18.40;6.97;;;;;;;11.85;61.17;102652.16;4995001;28;123444;-74
2021/11/09 10:10:47;;;;;;;18.27;6.93;;;;;;;11.93;61.21;102654.69;5007407;28;124176;-73
2021/11/09 10:13:20;;;;;;;17.92;7.32;;;;;;;12.03;61.03;102655.34;5004843;28;114839;-72
2021/11/09 10:15:50;;;;;;;17.00;6.45;;;;;;;12.12;60.94;102654.28;5001815;28;114181;-73
2021/11/09 10:18:22;;;;;;;14.35;5.88;;;;;;;12.20;60.67;102642.56;5004541;28;123525;-73
2021/11/09 10:20:55;;;;;;;14.18;6.07;;;;;;;12.29;60.80;102645.94;5001918;28;123142;-74
2021/11/09 10:23:28;;;;;;;20.25;6.88;;;;;;;12.36;60.62;102642.22;5003905;28;114025;-75
2021/11/09 10:26:08;;;;;;;19.85;7.07;;;;;;;12.46;60.61;102649.06;5005523;28;113983;-74
2021/11/09 10:28:36;;;;;;;17.38;6.38;;;;;;;12.54;60.40;102652.38;5009082;28;124185;-75
2021/11/09 10:31:07;;;;;;;17.08;5.65;;;;;;;12.61;60.46;102646.03;5010537;28;124151;-75
2021/11/09 10:33:43;;;;;;;13.65;6.50;;;;;;;12.71;60.20;102653.78;5006570;28;114896;-75
2021/11/09 10:36:26;;;;;;;16.83;6.20;;;;;;;12.80;60.27;102651.75;5000363;28;114242;-75
2021/11/09 10:39:11;;;;;;;17.92;6.22;;;;;;;12.88;60.16;102640.91;4990834;28;124605;-75
2021/11/09 10:41:39;;;;;;;19.83;6.20;;;;;;;12.97;60.01;102646.00;5003021;28;123844;-75
2021/11/09 10:44:09;;;;;;;14.18;5.82;;;;;;;13.07;59.87;102645.75;5006595;28;115042;-75
2021/11/09 10:46:37;;;;;;;18.45;6.20;;;;;;;13.14;59.95;102642.88;4997822;28;114749;-75
2021/11/09 10:49:04;;;;;;;16.35;5.75;;;;;;;13.24;59.83;102640.84;4998829;28;124059;-74
2021/11/09 10:51:53;;;;;;;14.05;5.78;;;;;;;13.31;59.56;102639.81;5002062;28;123868;-75
2021/11/09 10:54:44;;;;;;;17.95;5.95;;;;;;;13.39;59.65;102643.16;5000116;28;113805;-76
2021/11/09 10:57:22;;;;;;;14.45;6.03;;;;;;;13.47;59.27;102642.03;5003771;28;114157;-75
2021/11/09 11:00:12;;;;;;;20.83;6.53;;;;;;;13.52;59.05;102637.47;4993219;28;123185;-75
2021/11/09 11:05:25;;;;;;;14.65;5.85;;;;;;;13.65;58.92;102628.19;5005165;28;113346;-75
2021/11/09 11:07:56;;;;;;;20.50;6.25;;;;;;;13.71;58.84;102624.47;4999166;28;114446;-75
2021/11/09 11:10:32;;;;;;;14.85;5.93;;;;;;;13.77;58.77;102633.19;4997639;28;124750;-75
2021/11/09 11:13:16;;;;;;;17.33;6.20;;;;;;;13.82;58.59;102631.25;4997491;28;125759;-75
2021/11/09 11:16:06;;;;;;;14.65;6.22;;;;;;;13.89;58.70;102625.72;5003778;28;114183;-75
2021/11/09 11:18:41;;;;;;;14.93;5.70;;;;;;;13.96;58.33;102624.63;5003830;28;112783;-75
2021/11/09 11:21:12;;;;;;;15.38;5.75;;;;;;;14.01;58.41;102620.00;5005253;28;126866;-75
2021/11/09 11:23:40;;;;;;;12.85;5.25;;;;;;;14.08;58.18;102626.91;4992487;28;124223;-75
2021/11/09 11:26:09;;;;;;;14.52;5.30;;;;;;;14.13;58.00;102624.97;5002106;28;114087;-75
2021/11/09 11:28:41;;;;;;;13.40;5.90;;;;;;;14.19;57.98;102635.44;5010308;28;114064;-75
2021/11/09 11:31:10;;;;;;;16.80;5.82;;;;;;;14.28;57.92;102628.06;5000887;28;123954;-75
2021/11/09 11:33:38;;;;;;;17.38;5.75;;;;;;;14.34;57.70;102622.56;5013343;28;123673;-75
2021/11/09 11:36:05;;;;;;;16.85;4.93;;;;;;;14.39;57.77;102625.91;4993608;28;114777;-75
2021/11/09 11:38:36;;;;;;;13.77;4.93;;;;;;;14.45;57.47;102636.41;4996577;28;115294;-75
2021/11/09 11:41:04;;;;;;;14.98;5.22;;;;;;;14.50;57.13;102637.09;4998191;28;124098;-75
2021/11/09 11:43:50;;;;;;;15.10;5.13;;;;;;;14.54;57.11;102628.09;5012136;28;124807;-75
2021/11/09 11:46:48;;;;;;;12.00;4.95;;;;;;;14.59;57.12;102625.31;5012844;28;114067;-75
2021/11/09 11:49:18;;;;;;;16.70;5.32;;;;;;;14.65;57.04;102621.56;5000385;28;113832;-75
2021/11/09 11:51:45;;;;;;;15.90;5.60;;;;;;;14.69;56.88;102618.75;5010127;28;124509;-75
2021/11/09 11:54:16;;;;;;;16.13;5.30;;;;;;;14.75;56.90;102628.34;5004974;28;124137;-74
2021/11/09 11:56:48;;;;;;;11.52;5.18;;;;;;;14.81;56.74;102622.78;5008292;28;114209;-74
2021/11/09 11:59:24;;;;;;;10.75;4.93;;;;;;;14.88;56.58;102619.00;5001116;28;114228;-73
2021/11/09 12:01:56;;;;;;;17.23;5.72;;;;;;;14.94;56.39;102613.44;4994820;28;123560;-75
2021/11/09 12:07:51;;;;;;;16.17;5.47;;;;;;;15.02;56.26;102598.97;4975818;28;112928;-76
2021/11/09 12:10:20;;;;;;;12.73;4.90;;;;;;;15.07;55.96;102602.31;4976563;28;114003;-75
2021/11/09 12:13:02;;;;;;;17.08;5.03;;;;;;;15.15;56.04;102597.59;4991737;28;124467;-75
2021/11/09 12:15:51;;;;;;;14.13;4.88;;;;;;;15.23;55.89;102597.31;4990325;28;125584;-75
2021/11/09 12:18:27;;;;;;;18.63;5.30;;;;;;;15.28;55.76;102590.88;4996296;28;113460;-75
2021/11/09 12:21:00;;;;;;;13.10;4.78;;;;;;;15.31;55.48;102590.78;4957242;28;114567;-76
2021/11/09 12:23:30;;;;;;;12.55;4.85;;;;;;;15.36;55.28;102599.47;4978856;28;124570;-75
2021/11/09 12:26:39;;;;;;;14.55;4.88;;;;;;;15.41;55.34;102590.41;4972319;28;124019;-75
2021/11/09 12:29:37;;;;;;;14.32;4.82;;;;;;;15.45;55.30;102587.56;4971331;28;114231;-77
2021/11/09 12:32:24;;;;;;;12.52;4.72;;;;;;;15.49;55.13;102583.84;4969789;28;115199;-77
2021/11/09 12:35:05;;;;;;;12.48;4.28;;;;;;;15.55;54.79;102588.09;4970674;28;124047;-75
2021/11/09 12:37:36;;;;;;;15.05;4.55;;;;;;;15.58;54.81;102571.97;4969115;28;124727;-75
2021/11/09 12:40:30;;;;;;;13.20;4.32;;;;;;;15.65;54.93;102573.47;4971314;28;114533;-76
2021/11/09 12:43:08;;;;;;;14.02;4.53;;;;;;;15.71;54.61;102567.03;4961131;28;114070;-76
2021/11/09 12:45:38;;;;;;;9.38;4.22;;;;;;;15.75;54.53;102566.00;4993954;28;123768;-75
2021/11/09 12:48:08;;;;;;;11.18;3.90;;;;;;;15.81;54.44;102567.56;4995192;28;123913;-76
2021/11/09 12:50:47;;;;;;;13.52;3.97;;;;;;;15.86;53.95;102560.22;4963827;28;114719;-77
2021/11/09 12:53:18;;;;;;;13.60;4.22;;;;;;;15.89;54.01;102560.09;4981666;28;114214;-77
2021/11/09 12:56:01;;;;;;;12.95;4.28;;;;;;;15.88;53.78;102553.00;4969305;28;123997;-77
2021/11/09 12:58:33;;;;;;;16.55;3.90;;;;;;;15.92;53.84;102557.31;4955115;28;124599;-75
2021/11/09 13:04:14;;;;;;;13.27;3.78;;;;;;;15.97;53.39;102552.63;4981087;28;114364;-75
2021/11/09 13:09:43;;;;;;;12.18;3.90;;;;;;;16.02;53.31;102549.78;4966103;28;124653;-77
2021/11/09 13:12:14;;;;;;;11.95;3.75;;;;;;;16.01;53.06;102562.28;4961996;28;114120;-78
2021/11/09 13:14:49;;;;;;;12.27;3.35;;;;;;;16.02;53.04;102550.66;4999484;28;113412;-75
2021/11/09 13:17:44;;;;;;;12.57;3.63;;;;;;;16.03;52.97;102552.41;4965184;28;124208;-76
2021/11/09 13:20:34;;;;;;;10.32;3.15;;;;;;;16.05;52.73;102550.53;4966626;28;123850;-78
2021/11/09 13:23:11;;;;;;;11.77;3.15;;;;;;;16.07;52.78;102554.03;4957088;28;115114;-77
2021/11/09 13:25:46;;;;;;;15.73;3.58;;;;;;;16.08;52.59;102539.69;4964120;28;115033;-78
2021/11/09 13:28:35;;;;;;;12.15;3.70;;;;;;;16.08;52.71;102539.69;4970214;28;124164;-76
2021/11/09 13:31:07;;;;;;;9.20;3.38;;;;;;;16.09;52.56;102541.47;4970542;28;123905;-77